x

Mount Louis (45138) Wave Buoy

6:00pm - Mon 24th Jul 2017 All times are UTC.

  • Sig Wave height 2.0ft
  • Peak Period 3s
  • Wind
    18mph, 20mph gusts
  • Sea Temp 56°f
  • Air Temp 57°f
  • Sea Pressure 1017.7mb

More Historic Weather Station data

Upgrade to MSW Pro to gain access to the past 30 days of data for over 8000 Wavebouys and Weather Stations around the globe.

Join Pro

Comparision Forecast

View Surf forecast
   
Mon 07/24 6:00pm 2ft 3s 18 20 mph 1017.7mb 56f 57f
5:00pm 2ft 4s 16 18 mph 1017.2mb 56f 56f
4:00pm 2.5ft 4s 13 13 mph 1017.3mb 56f 57f
3:00pm 2.5ft 4s 13 16 mph 1017.8mb 55f 56f
2:00pm 3ft 4s 16 20 mph 1017.7mb 55f 56f
1:00pm 3ft 4s 18 20 mph 1017.4mb 54f 56f
12:00pm 3ft 4s 20 22 mph 1016.9mb 56f 56f
11:00am 3ft 4s 18 20 mph 1016.3mb 56f 56f
10:00am 3ft 4s 18 22 mph 1015.4mb 56f 56f
9:00am 3.5ft 4s 20 22 mph 1014.4mb 56f 56f
8:00am 3.5ft 4s 18 22 mph 1014.2mb 56f 56f
7:00am 3.5ft 4s 20 22 mph 1013.4mb 56f 56f
6:00am 3.5ft 4s 18 22 mph 1012.8mb 56f 57f
5:00am 3ft 5s 20 22 mph 1012.3mb 55f 58f
4:00am 3ft 5s 20 22 mph 1011.8mb 55f 58f
3:00am 3ft 5s 18 22 mph 1011.4mb 54f 58f
2:00am 3ft 5s 16 18 mph 1011.1mb 54f 59f
1:00am 3.5ft 5s 13 16 mph 1010.7mb 55f 57f
12:00am 4.5ft 5s 18 18 mph 1010mb 55f 57f
Sun 07/23 11:00pm 4.5ft 4s 20 22 mph 1009.6mb 56f 57f
10:00pm 4.5ft 5s 22 25 mph 1009.2mb 56f 58f
9:00pm 4.5ft 5s 22 25 mph 1008.6mb 57f 57f
8:00pm 4ft 5s 25 27 mph 1008.1mb 57f 57f
7:00pm 4.5ft 5s 22 27 mph 1008mb 57f 56f
6:00pm 4.5ft 5s 22 27 mph 1008.1mb 56f 56f
5:00pm 4.5ft 5s 22 27 mph 1008.3mb 56f 55f
4:00pm 4.5ft 5s 22 27 mph 1008.4mb 56f 54f
3:00pm 3.5ft 4s 22 27 mph 1008.4mb 54f 54f
2:00pm 3.5ft 4s 20 25 mph 1008.3mb 54f 53f
1:00pm 4ft 4s 22 25 mph 1007.9mb 55f 54f
12:00pm 4ft 4s 20 25 mph 1007.4mb 55f 54f
11:00am 4ft 4s 20 22 mph 1007.3mb 55f 55f
10:00am 4ft 4s 20 25 mph 1007mb 55f 54f
9:00am 4.5ft 4s 22 27 mph 1006.5mb 54f 55f
8:00am 4.5ft 5s 22 27 mph 1006.1mb 56f 55f
7:00am 4.5ft 5s 22 27 mph 1005.8mb 56f 56f
6:00am 4ft 5s 22 27 mph 1005.6mb 57f 57f
5:00am 4.5ft 5s 18 22 mph 1005.6mb 57f 57f
4:00am 5ft 6s 22 29 mph 1005.2mb 57f 58f
3:00am 4.5ft 7s 18 22 mph 1005.2mb 57f 58f
2:00am 5ft 6s 18 22 mph 1005.3mb 57f 58f
1:00am 5.5ft 6s 18 25 mph 1005mb 55f 58f
12:00am 6ft 7s 18 22 mph 1004.4mb 55f 57f
Sat 07/22 11:00pm 7ft 7s 25 29 mph 1003.7mb 56f 57f
10:00pm 7.5ft 7s 29 36 mph 1003.1mb 56f 58f
9:00pm 6.5ft 6s 29 36 mph 1003.4mb 56f 58f
8:00pm 7ft 6s 29 34 mph 1003.5mb 56f 58f
7:00pm 6ft 5s 29 36 mph 1003.7mb 57f 57f
5:00pm 4.5ft 5s 29 34 mph 1004.2mb 58f 56f
4:00pm 4ft 5s 25 29 mph 1004.3mb 58f 56f
3:00pm 4.5ft 5s 20 25 mph 1004.9mb 58f 55f
2:00pm 4ft 5s 22 27 mph 1005.2mb 58f 55f
1:00pm 4ft 5s 22 27 mph 1005.2mb 58f 55f
12:00pm 4ft 5s 20 25 mph 1005.1mb 58f 56f
11:00am 4.5ft 4s 22 25 mph 1004.7mb 58f 57f
10:00am 4ft 5s 22 27 mph 1004.5mb 58f 57f
9:00am  -   -  22
mph
- - -
8:00am  -   -  22
mph
1003.3mb 59f 59f
7:00am  -   -  22
mph
1002.7mb - 59f
5:00am 2.5ft 4s 20 25 mph 1002.6mb 60f 60f
4:00am 2.5ft 5s 16 20 mph 1002.4mb 60f 61f
3:00am 3ft 4s 13 18 mph 1002.3mb 60f 60f
2:00am 2.5ft 5s 25 27 mph 1002.5mb 60f 60f
1:00am 2.5ft 5s 20 22 mph 1002.8mb 61f 61f
12:00am 2.5ft 5s 16 20 mph 1002.4mb 61f 61f
Fri 07/21 11:00pm 2.5ft 4s 11 13 mph 1002.1mb 61f 61f
10:00pm 2ft 4s 13 16 mph 1002.3mb 61f 62f
9:00pm 2.5ft 4s 16 18 mph 1001.7mb 60f 63f
8:00pm 2.5ft 4s 13 16 mph 1002.1mb 60f 62f
7:00pm 2.5ft 4s 16 20 mph 1002.6mb 59f 62f
6:00pm 2.5ft 5s 18 20 mph 1003.4mb 59f 61f
5:00pm 2.5ft 5s 16 18 mph 1003.8mb 60f 60f
4:00pm 3ft 5s 16 20 mph 1004.3mb 60f 59f
3:00pm 2.5ft 5s 16 18 mph 1004.4mb 59f 58f
2:00pm 2.5ft 4s 18 22 mph 1004.6mb 59f 59f
1:00pm 2.5ft 4s 16 20 mph 1004.6mb 59f 60f
12:00pm 2.5ft 4s 11 11 mph 1004.9mb 59f 59f
11:00am 3.5ft 4s 13 18 mph 1004.4mb 59f 60f
10:00am 2.5ft 4s 22 27 mph 1004mb 59f 62f
9:00am 2ft 4s 16 20 mph 1003.9mb 59f 62f
8:00am 1.6ft 3s 16 18 mph 1003.5mb 60f 63f
7:00am 1.3ft 3s 16 18 mph 1003.4mb 60f 64f
6:00am 1.3ft 4s 13 16 mph 1003.8mb 60f 64f
5:00am 1.3ft 4s 13 18 mph 1004.2mb 60f 63f
4:00am 1ft 4s 9 11 mph 1004.9mb 61f 63f
3:00am 1.3ft 4s 9 9 mph 1005.3mb 61f 63f
2:00am 1.3ft 4s 7 7 mph 1005.5mb 61f 63f
1:00am 1.6ft 4s 9 9 mph 1005.8mb 61f 63f
12:00am 2ft 4s 9 11 mph 1006.1mb 61f 63f
Thu 07/20 11:00pm 2ft 4s 11 11 mph 1006.4mb 61f 63f
10:00pm 2.5ft 4s 13 13 mph 1006.7mb 61f 63f
9:00pm 2.5ft 4s 13 16 mph 1007.1mb 61f 63f
8:00pm 1.6ft 3s 16 18 mph 1007.5mb 61f 63f